Batiscan, Canada
Current Conditions -  °F | °C
As of 6:00 AM on Sunday 23 Nov 2014 (Local Time) from CYRQ Reporting Station
Haze Haze  
Wind Chill: 36°   Ceiling: 400
Heat Index: 36°   Visibility: 2.2mi
Dew Point: 36°   Wind: 3mph
Humidity: 100%   Direction: 260°W
Pressure: 29.96"   Gusts: NA
Location:  46.5°N, 72.25°W
Report Text: CYRQ 231100Z AUTO 26003KT 220V280 2 1/4SM BR OVC004 02/02 A2996 RMK SLP147
Loading
Personal Weather Stations






























Interactive Weather Map New forecast layout! Learn more

10-Day Weather Forecast

Advertisements
Track Severe Weather on mobile